createdAt,value
2018-05-24T00:00:21.348Z,57.03
2018-05-24T00:02:47.151Z,56.99
2018-05-24T00:05:12.989Z,57.00
2018-05-24T00:07:38.855Z,57.03
2018-05-24T00:10:04.689Z,57.01
2018-05-24T00:12:31.532Z,57.03
2018-05-24T00:14:57.376Z,57.18
2018-05-24T00:17:23.172Z,57.13
2018-05-24T00:19:49.010Z,57.20
2018-05-24T00:22:15.667Z,57.00
2018-05-24T00:24:42.429Z,57.09
2018-05-24T00:27:08.264Z,57.42
2018-05-24T00:29:34.853Z,57.08
2018-05-24T00:32:00.692Z,56.87
2018-05-24T00:34:27.451Z,57.05
2018-05-24T00:36:53.308Z,57.30
2018-05-24T00:39:19.640Z,57.38
2018-05-24T00:41:45.449Z,57.37
2018-05-24T00:44:11.296Z,57.10
2018-05-24T00:46:37.092Z,56.98
2018-05-24T00:49:02.996Z,57.36
2018-05-24T00:51:28.801Z,57.08
2018-05-24T00:53:55.571Z,56.89
2018-05-24T00:56:22.344Z,57.46
2018-05-24T00:58:48.141Z,57.49
2018-05-24T01:01:13.942Z,57.19
2018-05-24T01:03:40.636Z,57.35
2018-05-24T01:06:06.477Z,56.91
2018-05-24T01:08:33.224Z,57.16
2018-05-24T01:10:59.056Z,57.27
2018-05-24T01:13:25.759Z,57.01
2018-05-24T01:15:51.742Z,57.27
2018-05-24T01:18:18.389Z,57.37
2018-05-24T01:20:44.184Z,57.54
2018-05-24T01:23:11.029Z,57.33
2018-05-24T01:25:37.742Z,57.18
2018-05-24T01:28:04.531Z,56.80
2018-05-24T01:30:31.236Z,56.92
2018-05-24T01:32:57.161Z,57.01
2018-05-24T01:35:22.956Z,57.20
2018-05-24T01:37:49.605Z,57.07
2018-05-24T01:40:16.376Z,57.34
2018-05-24T01:42:42.175Z,57.30
2018-05-24T01:45:08.874Z,57.50
2018-05-24T01:47:34.673Z,57.29
2018-05-24T01:50:01.456Z,57.06
2018-05-24T01:52:27.252Z,57.52
2018-05-24T01:54:53.968Z,57.40
2018-05-24T01:57:19.820Z,57.48
2018-05-24T01:59:46.475Z,57.31
2018-05-24T02:02:12.278Z,57.48
2018-05-24T02:04:38.073Z,57.44
2018-05-24T02:07:03.908Z,57.50
2018-05-24T02:09:29.708Z,57.41
2018-05-24T02:11:56.244Z,57.52
2018-05-24T02:14:22.180Z,57.24
2018-05-24T02:16:47.975Z,57.32
2018-05-24T02:19:13.773Z,57.05
2018-05-24T02:21:39.572Z,57.34
2018-05-24T02:24:05.372Z,57.51
2018-05-24T02:26:31.176Z,57.68
2018-05-24T02:28:56.971Z,57.59
2018-05-24T02:31:22.778Z,57.03
2018-05-24T02:33:48.625Z,57.64
2018-05-24T02:36:14.426Z,56.77
2018-05-24T02:38:41.107Z,57.37
2018-05-24T02:41:06.900Z,57.68
2018-05-24T02:43:33.641Z,57.41
2018-05-24T02:45:59.440Z,57.78
2018-05-24T02:48:25.240Z,57.39
2018-05-24T02:50:51.037Z,57.48
2018-05-24T02:53:16.841Z,57.44
2018-05-24T02:55:42.640Z,57.29
2018-05-24T02:58:08.444Z,57.65
2018-05-24T03:00:34.244Z,57.53
2018-05-24T03:03:00.043Z,56.95
2018-05-24T03:05:25.845Z,57.57
2018-05-24T03:07:51.636Z,57.42
2018-05-24T03:10:17.441Z,57.42
2018-05-24T03:12:43.284Z,57.68
2018-05-24T03:15:09.084Z,57.52
2018-05-24T03:17:35.549Z,57.21
2018-05-24T03:20:01.493Z,57.29
2018-05-24T03:22:27.301Z,57.53
2018-05-24T03:24:54.168Z,57.05
2018-05-24T03:27:19.965Z,57.40
2018-05-24T03:29:45.760Z,57.49
2018-05-24T03:32:11.560Z,57.02
2018-05-24T03:34:37.392Z,57.43
2018-05-24T03:37:03.240Z,57.74
2018-05-24T03:39:29.779Z,57.41
2018-05-24T03:41:56.472Z,57.19
2018-05-24T03:44:23.105Z,57.11
2018-05-24T03:46:49.524Z,57.51
2018-05-24T03:49:16.253Z,57.33
2018-05-24T03:51:42.052Z,57.53
2018-05-24T03:54:07.890Z,57.17
2018-05-24T03:56:34.541Z,57.45
2018-05-24T03:59:01.448Z,57.26
2018-05-24T04:01:33.421Z,57.39
2018-05-24T04:04:05.356Z,57.52
2018-05-24T04:06:32.085Z,57.57
2018-05-24T04:08:58.824Z,57.61
2018-05-24T04:11:25.412Z,57.47
2018-05-24T04:13:51.210Z,57.83
2018-05-24T04:16:17.943Z,57.31
2018-05-24T04:18:43.743Z,57.66
2018-05-24T04:21:09.576Z,57.64
2018-05-24T04:23:36.268Z,57.57
2018-05-24T04:26:03.016Z,57.62
2018-05-24T04:28:28.807Z,57.73
2018-05-24T04:30:54.599Z,57.55
2018-05-24T04:33:20.391Z,57.01
2018-05-24T04:35:47.102Z,56.52
2018-05-24T04:38:12.937Z,55.91
2018-05-24T04:40:39.557Z,55.45
2018-05-24T04:43:05.391Z,55.51
2018-05-24T04:45:31.998Z,55.48
2018-05-24T04:47:57.849Z,55.11
2018-05-24T04:50:23.651Z,54.58
2018-05-24T04:52:49.453Z,54.71
2018-05-24T04:55:15.248Z,54.18
2018-05-24T04:57:41.948Z,54.67
2018-05-24T05:00:08.764Z,55.06
2018-05-24T05:02:35.404Z,54.28
2018-05-24T05:05:02.205Z,54.84
2018-05-24T05:07:28.008Z,54.84
2018-05-24T05:09:53.844Z,54.87
2018-05-24T05:12:19.659Z,54.95
2018-05-24T05:14:45.505Z,55.13
2018-05-24T05:17:11.284Z,55.12
2018-05-24T05:19:37.106Z,55.06
2018-05-24T05:22:02.920Z,55.07
2018-05-24T05:24:28.789Z,55.00
2018-05-24T05:26:55.596Z,55.21
2018-05-24T05:29:21.392Z,55.28
2018-05-24T05:31:47.187Z,55.00
2018-05-24T05:34:12.985Z,55.14
2018-05-24T05:36:38.789Z,55.36
2018-05-24T05:39:04.606Z,55.34
2018-05-24T05:41:30.412Z,55.26
2018-05-24T05:43:56.228Z,55.33
2018-05-24T05:46:22.034Z,55.52
2018-05-24T05:48:48.624Z,55.34
2018-05-24T05:51:14.485Z,55.36
2018-05-24T05:53:41.117Z,55.49
2018-05-24T05:56:06.917Z,55.31
2018-05-24T05:58:32.715Z,55.56
2018-05-24T06:00:59.038Z,55.27
2018-05-24T06:03:24.832Z,55.67
2018-05-24T06:05:50.731Z,55.61
2018-05-24T06:08:17.482Z,55.68
2018-05-24T06:10:43.286Z,55.69
2018-05-24T06:13:09.089Z,55.61
2018-05-24T06:15:35.900Z,55.81
2018-05-24T06:18:01.712Z,55.75
2018-05-24T06:20:27.516Z,55.70
2018-05-24T06:22:53.316Z,55.92
2018-05-24T06:25:19.130Z,55.97
2018-05-24T06:27:45.944Z,55.86
2018-05-24T06:30:11.740Z,56.00
2018-05-24T06:32:37.537Z,56.11
2018-05-24T06:35:03.377Z,56.00
2018-05-24T06:37:29.185Z,56.15
2018-05-24T06:39:55.993Z,56.37
2018-05-24T06:42:21.803Z,56.63
2018-05-24T06:44:47.597Z,56.35
2018-05-24T06:47:13.437Z,56.49
2018-05-24T06:49:40.096Z,56.64
2018-05-24T06:52:05.941Z,56.37
2018-05-24T06:54:31.788Z,56.59
2018-05-24T06:56:58.469Z,56.68
2018-05-24T06:59:24.365Z,56.64
2018-05-24T07:01:51.109Z,56.63
2018-05-24T07:04:20.856Z,56.70
2018-05-24T07:06:47.607Z,56.68
2018-05-24T07:09:13.441Z,56.66
2018-05-24T07:11:40.181Z,56.80
2018-05-24T07:14:05.980Z,56.70
2018-05-24T07:16:32.612Z,56.87
2018-05-24T07:18:58.413Z,56.88
2018-05-24T07:21:24.258Z,56.81
2018-05-24T07:23:50.067Z,56.67
2018-05-24T07:26:16.809Z,56.91
2018-05-24T07:28:42.734Z,56.99
2018-05-24T07:31:09.377Z,57.00
2018-05-24T07:33:36.116Z,57.07
2018-05-24T07:36:02.789Z,56.78
2018-05-24T07:38:29.401Z,57.02
2018-05-24T07:40:55.196Z,57.16
2018-05-24T07:43:20.995Z,57.24
2018-05-24T07:45:47.712Z,57.23
2018-05-24T07:48:14.356Z,57.08
2018-05-24T07:50:40.206Z,57.10
2018-05-24T07:53:06.049Z,57.20
2018-05-24T07:55:31.917Z,57.36
2018-05-24T07:57:57.776Z,57.33
2018-05-24T08:00:23.573Z,57.28
2018-05-24T08:02:50.366Z,56.52
2018-05-24T08:05:16.209Z,56.22
2018-05-24T08:07:42.854Z,55.46
2018-05-24T08:10:09.636Z,54.72
2018-05-24T08:12:35.549Z,54.09
2018-05-24T08:15:01.601Z,54.19
2018-05-24T08:17:28.188Z,54.18
2018-05-24T08:19:54.032Z,54.17
2018-05-24T08:22:20.824Z,54.13
2018-05-24T08:24:46.647Z,54.01
2018-05-24T08:27:13.429Z,54.13
2018-05-24T08:29:40.227Z,54.09
2018-05-24T08:32:07.009Z,54.51
2018-05-24T08:34:32.816Z,54.26
2018-05-24T08:36:59.725Z,54.06
2018-05-24T08:39:25.529Z,54.20
2018-05-24T08:41:52.384Z,54.34
2018-05-24T08:44:18.184Z,54.55
2018-05-24T08:46:44.988Z,54.33
2018-05-24T08:49:11.704Z,54.40
2018-05-24T08:51:37.525Z,54.37
2018-05-24T08:54:03.326Z,54.70
2018-05-24T08:56:30.002Z,54.82
2018-05-24T08:58:56.708Z,54.93
2018-05-24T09:01:22.632Z,54.86
2018-05-24T09:03:48.413Z,54.83
2018-05-24T09:06:14.370Z,54.99
2018-05-24T09:08:40.992Z,54.96
2018-05-24T09:11:06.788Z,55.06
2018-05-24T09:13:32.588Z,55.06
2018-05-24T09:15:58.388Z,55.05
2018-05-24T09:18:24.188Z,54.98
2018-05-24T09:20:49.992Z,55.08
2018-05-24T09:23:15.793Z,55.23
2018-05-24T09:25:41.584Z,55.23
2018-05-24T09:28:07.380Z,55.23
2018-05-24T09:30:34.196Z,55.19
2018-05-24T09:33:00.008Z,55.34
2018-05-24T09:35:26.510Z,55.32
2018-05-24T09:37:52.490Z,55.27
2018-05-24T09:40:18.407Z,55.34
2018-05-24T09:42:44.216Z,55.38
2018-05-24T09:45:10.012Z,55.10
2018-05-24T09:47:35.820Z,55.22
2018-05-24T09:50:01.658Z,55.58
2018-05-24T09:52:27.614Z,55.22
2018-05-24T09:54:53.417Z,55.28
2018-05-24T09:57:19.260Z,55.54
2018-05-24T09:59:45.171Z,55.66
2018-05-24T10:02:11.020Z,55.32
2018-05-24T10:04:36.830Z,55.46
2018-05-24T10:07:02.734Z,55.50
2018-05-24T10:09:28.568Z,55.54
2018-05-24T10:11:54.366Z,55.64
2018-05-24T10:14:20.190Z,55.56
2018-05-24T10:16:45.993Z,55.76
2018-05-24T10:19:11.793Z,55.70
2018-05-24T10:21:37.600Z,55.69
2018-05-24T10:24:03.405Z,55.88
2018-05-24T10:26:29.216Z,55.96
2018-05-24T10:28:55.064Z,55.39
2018-05-24T10:31:21.736Z,55.86
2018-05-24T10:33:48.520Z,55.84
2018-05-24T10:36:15.329Z,55.66
2018-05-24T10:38:42.470Z,55.85
2018-05-24T10:41:08.349Z,55.92
2018-05-24T10:43:35.116Z,55.87
2018-05-24T10:46:00.919Z,56.05
2018-05-24T10:48:26.757Z,55.97
2018-05-24T10:50:53.474Z,55.95
2018-05-24T10:53:20.316Z,56.20
2018-05-24T10:55:47.065Z,56.11
2018-05-24T10:58:13.178Z,55.90
2018-05-24T11:00:38.978Z,56.22
2018-05-24T11:03:05.648Z,55.89
2018-05-24T11:05:31.423Z,55.77
2018-05-24T11:07:58.073Z,55.93
2018-05-24T11:10:23.873Z,56.20
2018-05-24T11:12:50.661Z,55.88
2018-05-24T11:15:17.389Z,56.21
2018-05-24T11:17:43.232Z,56.15
2018-05-24T11:20:09.074Z,56.14
2018-05-24T11:22:34.908Z,56.21
2018-05-24T11:25:00.708Z,56.15
2018-05-24T11:27:27.465Z,56.18
2018-05-24T11:29:53.281Z,56.08
2018-05-24T11:32:20.037Z,56.30
2018-05-24T11:34:45.836Z,56.35
2018-05-24T11:37:11.756Z,55.95
2018-05-24T11:39:37.516Z,56.29
2018-05-24T11:42:03.361Z,55.99
2018-05-24T11:44:30.126Z,56.35
2018-05-24T11:46:56.075Z,55.67
2018-05-24T11:49:21.881Z,56.00
2018-05-24T11:51:47.687Z,56.08
2018-05-24T11:54:13.554Z,55.97
2018-05-24T11:56:39.357Z,56.33
2018-05-24T11:59:05.165Z,55.93
2018-05-24T12:01:31.965Z,56.28
2018-05-24T12:03:57.774Z,56.23
2018-05-24T12:06:23.577Z,56.17
2018-05-24T12:08:50.177Z,56.13
2018-05-24T12:11:16.959Z,56.36
2018-05-24T12:13:42.762Z,55.81
2018-05-24T12:16:08.623Z,56.03
2018-05-24T12:18:35.428Z,56.26
2018-05-24T12:21:01.236Z,55.86
2018-05-24T12:23:28.043Z,56.13
2018-05-24T12:25:53.853Z,56.15
2018-05-24T12:28:20.477Z,56.04
2018-05-24T12:30:47.190Z,56.38
2018-05-24T12:33:14.056Z,56.21
2018-05-24T12:35:39.946Z,56.32
2018-05-24T12:38:06.541Z,56.47
2018-05-24T12:40:33.152Z,56.07
2018-05-24T12:43:00.065Z,56.66
2018-05-24T12:45:25.835Z,56.38
2018-05-24T12:47:51.636Z,56.50
2018-05-24T12:50:18.398Z,56.30
2018-05-24T12:52:44.204Z,56.36
2018-05-24T12:55:10.005Z,56.47
2018-05-24T12:57:35.808Z,56.39
2018-05-24T13:00:01.627Z,56.51
2018-05-24T13:02:27.440Z,56.21
2018-05-24T13:04:53.282Z,56.50
2018-05-24T13:07:20.037Z,56.44
2018-05-24T13:09:45.860Z,56.10
2018-05-24T13:12:12.503Z,56.60
2018-05-24T13:14:38.304Z,56.61
2018-05-24T13:17:05.204Z,56.55
2018-05-24T13:19:30.972Z,56.07
2018-05-24T13:21:56.821Z,55.99
2018-05-24T13:24:22.659Z,56.42
2018-05-24T13:26:48.460Z,56.49
2018-05-24T13:29:14.265Z,56.34
2018-05-24T13:31:40.069Z,56.47
2018-05-24T13:34:05.920Z,56.40
2018-05-24T13:36:31.725Z,56.14
2018-05-24T13:38:57.520Z,56.40
2018-05-24T13:41:24.198Z,56.74
2018-05-24T13:43:50.001Z,56.35
2018-05-24T13:46:15.812Z,56.52
2018-05-24T13:48:41.661Z,55.79
2018-05-24T13:51:07.580Z,56.51
2018-05-24T13:53:33.379Z,56.41
2018-05-24T13:55:59.186Z,56.45
2018-05-24T13:58:24.988Z,56.48
2018-05-24T14:00:50.932Z,56.09
2018-05-24T14:03:16.737Z,56.09
2018-05-24T14:05:42.545Z,56.50
2018-05-24T14:08:08.421Z,56.29
2018-05-24T14:10:34.219Z,56.56
2018-05-24T14:13:01.040Z,56.60
2018-05-24T14:15:26.839Z,56.73
2018-05-24T14:17:53.601Z,56.37
2018-05-24T14:20:20.336Z,56.49
2018-05-24T14:22:46.140Z,56.21
2018-05-24T14:25:12.924Z,56.41
2018-05-24T14:27:38.768Z,55.99
2018-05-24T14:30:05.532Z,56.37
2018-05-24T14:32:31.334Z,56.57
2018-05-24T14:34:58.128Z,56.46
2018-05-24T14:37:24.878Z,56.54
2018-05-24T14:39:51.684Z,56.28
2018-05-24T14:42:18.513Z,56.65
2018-05-24T14:44:45.344Z,56.44
2018-05-24T14:47:11.656Z,56.60
2018-05-24T14:49:38.519Z,56.39
2018-05-24T14:52:05.338Z,56.39
2018-05-24T14:54:31.256Z,56.65
2018-05-24T14:56:57.069Z,56.60
2018-05-24T14:59:22.901Z,56.47
2018-05-24T15:01:48.706Z,56.69
2018-05-24T15:04:14.571Z,56.48
2018-05-24T15:06:40.372Z,56.08
2018-05-24T15:09:06.169Z,56.57
2018-05-24T15:11:31.978Z,56.38
2018-05-24T15:13:58.653Z,56.74
2018-05-24T15:16:24.497Z,56.87
2018-05-24T15:18:51.132Z,56.67
2018-05-24T15:21:16.972Z,56.85
2018-05-24T15:23:43.693Z,56.60
2018-05-24T15:26:09.502Z,56.64
2018-05-24T15:28:36.276Z,56.49
2018-05-24T15:31:02.076Z,56.16
2018-05-24T15:33:27.923Z,56.59
2018-05-24T15:35:53.704Z,56.64
2018-05-24T15:38:19.508Z,56.74
2018-05-24T15:40:45.361Z,56.67
2018-05-24T15:43:11.153Z,56.89
2018-05-24T15:45:37.856Z,56.52
2018-05-24T15:48:04.632Z,56.81
2018-05-24T15:50:30.541Z,56.73
2018-05-24T15:52:56.345Z,56.84
2018-05-24T15:55:22.149Z,56.77
2018-05-24T15:57:47.952Z,56.68
2018-05-24T16:00:13.753Z,56.95
2018-05-24T16:02:40.684Z,56.77
2018-05-24T16:05:07.305Z,56.86
2018-05-24T16:07:34.045Z,57.06
2018-05-24T16:09:59.849Z,56.69
2018-05-24T16:12:25.653Z,56.82
2018-05-24T16:14:51.461Z,56.82
2018-05-24T16:17:17.267Z,56.74
2018-05-24T16:19:43.144Z,56.30
2018-05-24T16:22:08.952Z,56.99
2018-05-24T16:24:34.796Z,56.95
2018-05-24T16:27:00.637Z,56.66
2018-05-24T16:29:27.314Z,57.01
2018-05-24T16:31:54.105Z,56.95
2018-05-24T16:34:21.046Z,57.00
2018-05-24T16:36:46.879Z,57.19
2018-05-24T16:39:12.704Z,57.00
2018-05-24T16:41:38.508Z,57.00
2018-05-24T16:44:04.325Z,56.99
2018-05-24T16:46:30.169Z,57.21
2018-05-24T16:48:56.097Z,57.08
2018-05-24T16:51:21.936Z,57.02
2018-05-24T16:53:47.784Z,57.03
2018-05-24T16:56:13.584Z,57.09
2018-05-24T16:58:39.437Z,56.87
2018-05-24T17:01:05.237Z,56.80
2018-05-24T17:03:31.042Z,56.39
2018-05-24T17:05:56.848Z,56.70
2018-05-24T17:08:22.653Z,56.92
2018-05-24T17:10:48.458Z,57.03
2018-05-24T17:13:14.261Z,56.76
2018-05-24T17:15:40.065Z,57.16
2018-05-24T17:18:05.867Z,57.09
2018-05-24T17:20:31.689Z,57.32
2018-05-24T17:22:57.492Z,57.25
2018-05-24T17:25:23.291Z,57.36
2018-05-24T17:27:49.101Z,57.34
2018-05-24T17:30:14.993Z,57.19
2018-05-24T17:32:41.725Z,57.38
2018-05-24T17:35:07.524Z,57.47
2018-05-24T17:37:33.517Z,57.42
2018-05-24T17:39:59.396Z,57.40
2018-05-24T17:42:25.209Z,57.08
2018-05-24T17:44:51.013Z,57.34
2018-05-24T17:47:17.829Z,57.29
2018-05-24T17:49:43.630Z,57.37
2018-05-24T17:52:09.428Z,57.29
2018-05-24T17:54:35.228Z,57.34
2018-05-24T17:57:01.148Z,57.47
2018-05-24T17:59:26.952Z,57.48
2018-05-24T18:01:52.768Z,57.45
2018-05-24T18:04:18.589Z,57.44
2018-05-24T18:06:44.389Z,57.66
2018-05-24T18:09:10.193Z,57.65
2018-05-24T18:11:36.028Z,57.49
2018-05-24T18:14:01.839Z,57.60
2018-05-24T18:16:27.643Z,57.46
2018-05-24T18:18:53.465Z,57.56
2018-05-24T18:24:11.865Z,57.92
2018-05-24T18:26:37.781Z,57.75
2018-05-24T18:29:03.687Z,57.46
2018-05-24T18:31:29.516Z,57.67
2018-05-24T18:33:56.517Z,57.56
2018-05-24T18:36:22.329Z,57.75
2018-05-24T18:38:48.137Z,57.57
2018-05-24T18:41:14.897Z,57.67
2018-05-24T18:43:40.708Z,57.64
2018-05-24T18:46:07.297Z,57.30
2018-05-24T18:48:33.105Z,57.66
2018-05-24T18:50:58.958Z,57.69
2018-05-24T18:53:24.817Z,57.63
2018-05-24T18:55:50.812Z,57.60
2018-05-24T18:58:17.926Z,57.50
2018-05-24T19:00:44.558Z,57.59
2018-05-24T19:03:10.553Z,57.64
2018-05-24T19:05:36.356Z,57.61
2018-05-24T19:08:02.189Z,57.56
2018-05-24T19:10:28.014Z,57.72
2018-05-24T19:12:54.169Z,57.53
2018-05-24T19:15:20.793Z,57.75
2018-05-24T19:17:47.532Z,57.42
2018-05-24T19:20:13.440Z,57.08
2018-05-24T19:22:39.292Z,56.68
2018-05-24T19:25:05.100Z,56.21
2018-05-24T19:27:30.913Z,55.07
2018-05-24T19:29:56.725Z,54.85
2018-05-24T19:32:22.537Z,54.97
2018-05-24T19:34:48.397Z,54.40
2018-05-24T19:37:15.052Z,54.29
2018-05-24T19:39:40.857Z,53.76
2018-05-24T19:42:06.665Z,54.09
2018-05-24T19:44:32.488Z,53.70
2018-05-24T19:46:58.294Z,53.59
2018-05-24T19:49:24.113Z,53.74
2018-05-24T19:51:49.917Z,54.05
2018-05-24T19:54:15.727Z,54.23
2018-05-24T19:56:42.348Z,54.46
2018-05-24T19:59:09.124Z,54.70
2018-05-24T20:01:35.080Z,54.74
2018-05-24T20:04:01.002Z,54.91
2018-05-24T20:06:26.809Z,54.57
2018-05-24T20:08:52.617Z,54.74
2018-05-24T20:11:18.430Z,55.04
2018-05-24T20:13:44.441Z,54.75
2018-05-24T20:16:10.249Z,55.01
2018-05-24T20:18:36.135Z,54.98
2018-05-24T20:21:03.084Z,55.10
2018-05-24T20:23:29.837Z,55.03
2018-05-24T20:25:55.645Z,55.13
2018-05-24T20:28:21.487Z,55.23
2018-05-24T20:30:48.299Z,55.30
2018-05-24T20:33:15.132Z,55.11
2018-05-24T20:35:40.988Z,55.32
2018-05-24T20:38:06.797Z,55.34
2018-05-24T20:40:32.705Z,55.32
2018-05-24T20:42:58.512Z,55.38
2018-05-24T20:45:24.311Z,55.33
2018-05-24T20:47:50.119Z,55.55
2018-05-24T20:50:15.932Z,55.60
2018-05-24T20:52:41.772Z,55.48
2018-05-24T20:55:07.577Z,55.59
2018-05-24T20:57:34.347Z,55.60
2018-05-24T21:00:00.160Z,55.71
2018-05-24T21:02:26.002Z,55.74
2018-05-24T21:04:51.807Z,55.75
2018-05-24T21:07:17.615Z,55.75
2018-05-24T21:09:44.309Z,55.79
2018-05-24T21:12:10.128Z,55.85
2018-05-24T21:14:35.940Z,55.53
2018-05-24T21:17:01.745Z,55.76
2018-05-24T21:19:28.363Z,55.87
2018-05-24T21:21:55.153Z,55.72
2018-05-24T21:24:22.116Z,55.72
2018-05-24T21:26:48.853Z,55.78
2018-05-24T21:29:14.680Z,55.98
2018-05-24T21:31:41.288Z,55.83
2018-05-24T21:34:07.096Z,55.86
2018-05-24T21:36:32.900Z,55.98
2018-05-24T21:38:58.701Z,56.07
2018-05-24T21:41:25.352Z,56.14
2018-05-24T21:43:51.158Z,55.98
2018-05-24T21:46:17.065Z,56.00
2018-05-24T21:48:43.780Z,56.01
2018-05-24T21:51:09.629Z,56.14
2018-05-24T21:53:35.548Z,56.14
2018-05-24T21:56:01.354Z,55.99
2018-05-24T21:58:28.043Z,56.14
2018-05-24T22:00:53.947Z,56.05
2018-05-24T22:03:19.760Z,56.21
2018-05-24T22:05:45.568Z,56.19
2018-05-24T22:08:11.424Z,56.22
2018-05-24T22:10:37.413Z,56.16
2018-05-24T22:13:03.224Z,56.04
2018-05-24T22:15:29.029Z,56.23
2018-05-24T22:17:54.881Z,56.33
2018-05-24T22:20:20.688Z,56.25
2018-05-24T22:22:46.619Z,56.36
2018-05-24T22:25:12.458Z,56.38
2018-05-24T22:27:38.271Z,56.16
2018-05-24T22:30:04.076Z,56.26
2018-05-24T22:32:29.881Z,56.06
2018-05-24T22:34:55.712Z,56.34
2018-05-24T22:37:21.521Z,56.42
2018-05-24T22:39:47.358Z,56.28
2018-05-24T22:42:13.192Z,56.27
2018-05-24T22:44:38.996Z,56.40
2018-05-24T22:47:04.824Z,56.47
2018-05-24T22:49:31.424Z,56.59
2018-05-24T22:51:58.235Z,56.56
2018-05-24T22:54:24.884Z,56.46
2018-05-24T22:56:51.503Z,56.54
2018-05-24T22:59:17.436Z,56.48
2018-05-24T23:01:44.169Z,56.64
2018-05-24T23:04:10.046Z,56.56
2018-05-24T23:06:35.854Z,56.43
2018-05-24T23:09:01.701Z,56.68
2018-05-24T23:11:27.661Z,56.66
2018-05-24T23:13:53.505Z,56.63
2018-05-24T23:16:19.405Z,56.72
2018-05-24T23:18:46.183Z,56.69
2018-05-24T23:21:12.073Z,56.69
2018-05-24T23:23:39.395Z,56.76
2018-05-24T23:26:06.321Z,56.87
2018-05-24T23:28:33.103Z,56.69
2018-05-24T23:30:58.905Z,56.82
2018-05-24T23:33:25.891Z,56.59
2018-05-24T23:35:51.708Z,56.76
2018-05-24T23:38:17.546Z,56.40
2018-05-24T23:40:44.379Z,56.61
2018-05-24T23:43:10.194Z,56.72
2018-05-24T23:45:36.110Z,56.72
2018-05-24T23:48:01.956Z,56.51
2018-05-24T23:50:27.873Z,56.75
2018-05-24T23:52:53.676Z,56.89
2018-05-24T23:55:19.488Z,56.74
2018-05-24T23:57:45.296Z,56.76
